Time;durP1;ratioP1;P1;durP2;ratioP2;P2;SDS_P1;SDS_P2;PMS_P1;PMS_P2;Temp;Humidity;BMP_temperature;BMP_pressure;BME280_temperature;BME280_humidity;BME280_pressure;Samples;Min_cycle;Max_cycle;Signal;HPM_P1;HPM_P2
2023/01/07 00:01:45;;;;;;;1.15;1.05;;;10.60;99.90;;;;;;6144207;23;20207;-68
2023/01/07 00:04:15;;;;;;;1.30;1.20;;;10.60;99.90;;;;;;6138030;23;20252;-68
2023/01/07 00:06:44;;;;;;;1.60;1.50;;;10.60;99.90;;;;;;6132097;23;20965;-68
2023/01/07 00:09:15;;;;;;;2.85;1.70;;;10.60;99.90;;;;;;6125740;23;20193;-68
2023/01/07 00:11:42;;;;;;;2.40;2.20;;;10.60;99.90;;;;;;6121587;23;20538;-67
2023/01/07 00:14:11;;;;;;;2.45;2.25;;;10.60;99.90;;;;;;6139889;23;20201;-68
2023/01/07 00:16:39;;;;;;;3.05;2.60;;;10.60;99.90;;;;;;6147844;23;20261;-68
2023/01/07 00:19:07;;;;;;;2.28;2.08;;;10.50;99.90;;;;;;6146962;23;20287;-68
2023/01/07 00:21:36;;;;;;;2.03;1.73;;;10.60;99.90;;;;;;6126629;23;20281;-68
2023/01/07 00:24:05;;;;;;;1.70;1.60;;;10.60;99.90;;;;;;6139997;23;20221;-68
2023/01/07 00:26:34;;;;;;;1.80;1.50;;;10.60;99.90;;;;;;6134437;23;20198;-68
2023/01/07 00:29:01;;;;;;;1.73;1.63;;;10.60;99.90;;;;;;6149508;23;20244;-68
2023/01/07 00:31:30;;;;;;;1.77;1.50;;;10.60;99.90;;;;;;6145271;23;20237;-68
2023/01/07 00:34:07;;;;;;;1.67;1.58;;;10.60;99.90;;;;;;6126661;23;20248;-68
2023/01/07 00:36:39;;;;;;;1.27;1.17;;;10.60;99.90;;;;;;6125404;23;20192;-68
2023/01/07 00:39:08;;;;;;;1.45;1.35;;;10.60;99.90;;;;;;6132096;23;20218;-68
2023/01/07 00:41:36;;;;;;;1.52;1.40;;;10.60;99.90;;;;;;6132353;23;20282;-68
2023/01/07 00:44:04;;;;;;;1.35;1.23;;;10.60;99.90;;;;;;6135566;23;20767;-68
2023/01/07 00:46:32;;;;;;;1.45;1.35;;;10.60;99.90;;;;;;6144483;23;20723;-68
2023/01/07 00:49:00;;;;;;;1.40;1.30;;;10.60;99.90;;;;;;6123276;23;20659;-68
2023/01/07 00:51:27;;;;;;;1.58;1.48;;;10.60;99.90;;;;;;6127263;23;20568;-68
2023/01/07 00:53:55;;;;;;;1.30;1.20;;;10.60;99.90;;;;;;6147758;23;20199;-68
2023/01/07 00:56:22;;;;;;;1.85;1.55;;;10.60;99.90;;;;;;6148910;23;20584;-68
2023/01/07 00:58:49;;;;;;;1.85;1.40;;;10.70;99.90;;;;;;6147894;23;20237;-68
2023/01/07 01:01:16;;;;;;;1.60;1.50;;;10.60;99.90;;;;;;6131321;23;20713;-68
2023/01/07 01:03:43;;;;;;;1.40;1.30;;;10.60;99.90;;;;;;6136365;23;20517;-68
2023/01/07 01:06:13;;;;;;;1.65;1.52;;;10.70;99.90;;;;;;6134232;23;20183;-68
2023/01/07 01:08:42;;;;;;;1.75;1.65;;;10.70;99.90;;;;;;6120991;23;20270;-68
2023/01/07 01:11:12;;;;;;;1.65;1.55;;;10.60;99.90;;;;;;6121547;23;20235;-68
2023/01/07 01:13:39;;;;;;;1.63;1.52;;;10.50;99.90;;;;;;6139288;23;20213;-68
2023/01/07 01:16:11;;;;;;;2.05;1.90;;;10.50;99.90;;;;;;6135711;23;20233;-68
2023/01/07 01:18:39;;;;;;;1.80;1.70;;;10.50;99.90;;;;;;6146618;23;20243;-66
2023/01/07 01:21:07;;;;;;;1.98;1.58;;;10.60;99.90;;;;;;6139025;23;20266;-67
2023/01/07 01:23:35;;;;;;;1.58;1.48;;;10.50;99.90;;;;;;6142756;23;20219;-67
2023/01/07 01:26:04;;;;;;;1.77;1.67;;;10.50;99.90;;;;;;6148424;23;20187;-67
2023/01/07 01:28:33;;;;;;;1.75;1.65;;;10.60;99.90;;;;;;6142504;23;20296;-67
2023/01/07 01:31:00;;;;;;;1.33;1.23;;;10.50;99.90;;;;;;6146205;23;20202;-67
2023/01/07 01:33:27;;;;;;;1.63;1.52;;;10.50;99.90;;;;;;6141905;23;20191;-67
2023/01/07 01:35:54;;;;;;;1.88;1.77;;;10.50;99.90;;;;;;6137696;23;20226;-67
2023/01/07 01:38:21;;;;;;;1.50;1.40;;;10.50;99.90;;;;;;6146226;23;20187;-67
2023/01/07 01:40:48;;;;;;;1.60;1.50;;;10.50;99.90;;;;;;6145814;23;20211;-67
2023/01/07 01:43:32;;;;;;;1.73;1.50;;;10.50;99.90;;;;;;6134481;23;20221;-67
2023/01/07 01:46:02;;;;;;;1.80;1.67;;;10.50;99.90;;;;;;6134407;23;20273;-67
2023/01/07 01:48:33;;;;;;;2.08;1.90;;;10.50;99.90;;;;;;6147237;23;20206;-67
2023/01/07 01:51:02;;;;;;;1.42;1.33;;;10.50;99.90;;;;;;6146819;23;20222;-67
2023/01/07 01:53:33;;;;;;;1.55;1.45;;;10.50;99.90;;;;;;6143154;23;20198;-66
2023/01/07 01:56:07;;;;;;;1.65;1.55;;;10.50;99.90;;;;;;6143034;23;20469;-67
2023/01/07 01:58:40;;;;;;;2.22;2.03;;;10.40;99.90;;;;;;6146508;23;20216;-67
2023/01/07 02:01:07;;;;;;;1.63;1.40;;;10.40;99.90;;;;;;6148400;23;20665;-67
2023/01/07 02:03:36;;;;;;;2.60;2.10;;;10.40;99.90;;;;;;6135375;23;20214;-67
2023/01/07 02:06:04;;;;;;;2.08;1.70;;;10.40;99.90;;;;;;6146330;23;20276;-67
2023/01/07 02:08:31;;;;;;;2.25;1.52;;;10.40;99.90;;;;;;6148437;23;20214;-67
2023/01/07 02:11:15;;;;;;;2.00;1.80;;;10.30;99.90;;;;;;6140869;23;20211;-67
2023/01/07 02:13:54;;;;;;;1.50;1.40;;;10.30;99.90;;;;;;6136665;23;20270;-67
2023/01/07 02:16:26;;;;;;;1.60;1.40;;;10.30;99.90;;;;;;6143526;23;20270;-67
2023/01/07 02:19:16;;;;;;;1.83;1.70;;;10.20;99.90;;;;;;6148556;23;20225;-67
2023/01/07 02:21:51;;;;;;;1.70;1.60;;;10.20;99.90;;;;;;6146380;23;20191;-67
2023/01/07 02:24:53;;;;;;;2.10;2.00;;;10.20;99.90;;;;;;6131267;23;20222;-67
2023/01/07 02:27:44;;;;;;;2.85;1.65;;;10.20;99.90;;;;;;6146532;23;20190;-67
2023/01/07 02:30:39;;;;;;;1.60;1.50;;;10.20;99.90;;;;;;6147385;23;20213;-67
2023/01/07 02:33:37;;;;;;;1.95;1.85;;;10.20;99.90;;;;;;6142457;23;20543;-67
2023/01/07 02:36:29;;;;;;;1.70;1.60;;;10.20;99.90;;;;;;6118746;23;20230;-67
2023/01/07 02:39:18;;;;;;;2.10;1.98;;;10.20;99.90;;;;;;6099812;23;20720;-67
2023/01/07 02:41:56;;;;;;;2.10;1.70;;;10.10;99.90;;;;;;6138723;23;20735;-67
2023/01/07 02:44:30;;;;;;;1.70;1.60;;;10.20;99.90;;;;;;6141375;23;20632;-67
2023/01/07 02:47:05;;;;;;;2.08;1.58;;;10.10;99.90;;;;;;6146321;23;20201;-67
2023/01/07 02:49:34;;;;;;;1.95;1.85;;;10.10;99.90;;;;;;6142472;23;20297;-67
2023/01/07 02:52:17;;;;;;;2.20;2.00;;;10.10;99.90;;;;;;6142155;23;20194;-67
2023/01/07 02:54:47;;;;;;;2.85;2.08;;;10.00;99.90;;;;;;6137607;23;20191;-67
2023/01/07 02:57:47;;;;;;;1.90;1.80;;;10.00;99.90;;;;;;6126705;23;20182;-67
2023/01/07 03:00:40;;;;;;;2.05;1.73;;;9.90;99.90;;;;;;6120422;23;20203;-67
2023/01/07 03:03:28;;;;;;;2.08;1.90;;;9.90;99.90;;;;;;6123315;23;20309;-67
2023/01/07 03:06:05;;;;;;;3.13;2.10;;;9.80;99.90;;;;;;6139327;23;20646;-67
2023/01/07 03:08:44;;;;;;;1.70;1.60;;;9.80;99.90;;;;;;6134869;23;20667;-67
2023/01/07 03:11:12;;;;;;;2.35;2.15;;;9.80;99.90;;;;;;6140104;23;20210;-67
2023/01/07 03:13:43;;;;;;;2.08;1.88;;;9.80;99.90;;;;;;6135985;23;20657;-67
2023/01/07 03:16:17;;;;;;;2.70;1.80;;;9.80;99.90;;;;;;6141957;23;20306;-67
2023/01/07 03:18:49;;;;;;;3.17;2.47;;;9.80;99.90;;;;;;6149078;23;20185;-67
2023/01/07 03:21:21;;;;;;;2.33;2.13;;;9.80;99.90;;;;;;6144681;23;20207;-67
2023/01/07 03:23:53;;;;;;;2.00;1.80;;;9.80;99.90;;;;;;6145582;23;20210;-67
2023/01/07 03:26:23;;;;;;;1.70;1.60;;;9.70;99.90;;;;;;6147156;23;20186;-67
2023/01/07 03:28:51;;;;;;;2.17;1.98;;;9.70;99.90;;;;;;6149837;23;20186;-67
2023/01/07 03:31:21;;;;;;;1.92;1.83;;;9.70;99.90;;;;;;6139666;23;20235;-67
2023/01/07 03:33:53;;;;;;;1.92;1.83;;;9.70;99.90;;;;;;6133175;23;20604;-67
2023/01/07 03:36:27;;;;;;;2.20;2.00;;;9.70;99.90;;;;;;6147609;23;20681;-67
2023/01/07 03:38:54;;;;;;;1.80;1.70;;;9.60;99.90;;;;;;6132186;23;20581;-67
2023/01/07 03:44:06;;;;;;;2.25;2.10;;;9.60;99.90;;;;;;6131651;23;20210;-67
2023/01/07 03:46:35;;;;;;;2.13;1.80;;;9.60;99.90;;;;;;6138605;23;20199;-67
2023/01/07 03:49:02;;;;;;;1.67;1.58;;;9.70;99.90;;;;;;6127279;23;20222;-67
2023/01/07 03:51:30;;;;;;;2.17;1.98;;;9.70;99.90;;;;;;6135828;23;20206;-67
2023/01/07 03:53:57;;;;;;;2.33;2.20;;;9.70;99.90;;;;;;6133473;23;20187;-67
2023/01/07 03:56:24;;;;;;;2.22;2.03;;;9.70;99.90;;;;;;6144529;23;20187;-67
2023/01/07 03:58:51;;;;;;;2.33;2.22;;;9.70;99.90;;;;;;6146916;23;20277;-67
2023/01/07 04:01:18;;;;;;;1.83;1.73;;;9.70;99.90;;;;;;6137801;23;20226;-67
2023/01/07 04:03:45;;;;;;;2.20;2.00;;;9.70;99.90;;;;;;6128477;23;20286;-67
2023/01/07 04:06:12;;;;;;;2.35;2.15;;;9.70;99.90;;;;;;6147026;23;20214;-67
2023/01/07 04:08:41;;;;;;;2.03;1.90;;;9.60;99.90;;;;;;6145800;23;20685;-67
2023/01/07 04:11:08;;;;;;;2.10;2.00;;;9.60;99.90;;;;;;6130826;23;20211;-67
2023/01/07 04:13:34;;;;;;;1.80;1.70;;;9.60;99.90;;;;;;6136194;23;20194;-67
2023/01/07 04:16:02;;;;;;;2.70;2.10;;;9.60;99.90;;;;;;6136013;23;20235;-67
2023/01/07 04:18:29;;;;;;;1.75;1.65;;;9.60;99.90;;;;;;6149034;23;20183;-67
2023/01/07 04:20:55;;;;;;;1.90;1.80;;;9.60;99.90;;;;;;6148215;23;20285;-67
2023/01/07 04:23:23;;;;;;;1.92;1.83;;;9.60;99.90;;;;;;6139426;23;20191;-67
2023/01/07 04:25:51;;;;;;;3.20;1.85;;;9.70;99.90;;;;;;6134069;23;20218;-67
2023/01/07 04:28:18;;;;;;;2.92;2.10;;;9.70;99.90;;;;;;6146072;23;20634;-67
2023/01/07 04:30:45;;;;;;;1.95;1.80;;;9.70;99.90;;;;;;6148078;23;20210;-67
2023/01/07 04:33:12;;;;;;;1.92;1.75;;;9.70;99.90;;;;;;6132210;23;20996;-67
2023/01/07 04:35:39;;;;;;;1.70;1.60;;;9.70;99.90;;;;;;6139091;23;20198;-67
2023/01/07 04:38:07;;;;;;;1.70;1.60;;;9.70;99.90;;;;;;6147799;23;20190;-67
2023/01/07 04:40:34;;;;;;;1.77;1.67;;;9.70;99.90;;;;;;6147355;23;20206;-67
2023/01/07 04:43:02;;;;;;;1.70;1.60;;;9.80;99.90;;;;;;6141249;23;20535;-67
2023/01/07 04:45:29;;;;;;;1.60;1.50;;;9.80;99.90;;;;;;6143987;23;20268;-67
2023/01/07 04:47:56;;;;;;;1.48;1.38;;;9.80;99.90;;;;;;6127927;23;20551;-67
2023/01/07 04:50:24;;;;;;;1.70;1.60;;;9.80;99.90;;;;;;6143168;23;20234;-67
2023/01/07 04:52:51;;;;;;;1.90;1.80;;;9.90;99.90;;;;;;6148654;23;20186;-67
2023/01/07 04:55:18;;;;;;;1.70;1.60;;;9.80;99.90;;;;;;6135779;23;20662;-67
2023/01/07 04:57:45;;;;;;;2.00;1.90;;;9.80;99.90;;;;;;6138120;23;20190;-67
2023/01/07 05:00:14;;;;;;;1.85;1.58;;;9.80;99.90;;;;;;6146807;23;20343;-67
2023/01/07 05:02:41;;;;;;;1.95;1.85;;;9.80;99.90;;;;;;6140692;23;20545;-67
2023/01/07 05:05:09;;;;;;;1.90;1.70;;;9.80;99.90;;;;;;6141564;23;20240;-67
2023/01/07 05:07:36;;;;;;;1.60;1.50;;;9.70;99.90;;;;;;6132721;23;20524;-67
2023/01/07 05:10:04;;;;;;;2.33;2.10;;;9.70;99.90;;;;;;6127934;23;20219;-67
2023/01/07 05:12:33;;;;;;;2.13;1.92;;;9.70;99.90;;;;;;6142408;23;20198;-67
2023/01/07 05:15:01;;;;;;;2.08;1.98;;;9.60;99.90;;;;;;6145587;23;20221;-67
2023/01/07 05:17:29;;;;;;;1.70;1.60;;;9.60;99.90;;;;;;6137618;23;20713;-67
2023/01/07 05:19:56;;;;;;;2.25;2.05;;;9.60;99.90;;;;;;6122546;23;20217;-67
2023/01/07 05:22:23;;;;;;;1.83;1.73;;;9.60;99.90;;;;;;6146361;23;20187;-67
2023/01/07 05:24:50;;;;;;;2.13;1.92;;;9.60;99.90;;;;;;6135058;23;20309;-67
2023/01/07 05:27:17;;;;;;;1.85;1.75;;;9.50;99.90;;;;;;6143042;23;20191;-67
2023/01/07 05:29:44;;;;;;;1.90;1.77;;;9.50;99.90;;;;;;6128754;23;20755;-67
2023/01/07 05:32:11;;;;;;;1.90;1.80;;;9.50;99.90;;;;;;6137476;23;20198;-67
2023/01/07 05:34:39;;;;;;;2.78;2.20;;;9.50;99.90;;;;;;6126222;23;20248;-67
2023/01/07 05:37:07;;;;;;;2.90;2.70;;;9.50;99.90;;;;;;6138671;23;20184;-67
2023/01/07 05:39:34;;;;;;;3.25;2.70;;;9.50;99.90;;;;;;6128080;23;20294;-67
2023/01/07 05:42:02;;;;;;;2.95;2.75;;;9.50;99.90;;;;;;6125131;23;20607;-67
2023/01/07 05:44:29;;;;;;;2.75;2.30;;;9.50;99.90;;;;;;6121752;23;20219;-67
2023/01/07 05:46:56;;;;;;;3.30;3.00;;;9.50;99.90;;;;;;6141169;23;20274;-67
2023/01/07 05:49:22;;;;;;;3.92;2.78;;;9.50;99.90;;;;;;6131789;23;20698;-67
2023/01/07 05:51:51;;;;;;;3.10;2.90;;;9.50;99.90;;;;;;6142616;23;20194;-67
2023/01/07 05:54:18;;;;;;;3.10;2.90;;;9.40;99.90;;;;;;6147662;23;20269;-67
2023/01/07 05:56:45;;;;;;;3.88;2.88;;;9.40;99.90;;;;;;6141481;23;20187;-67
2023/01/07 05:59:12;;;;;;;2.45;2.30;;;9.40;99.90;;;;;;6141102;23;20208;-67
2023/01/07 06:01:39;;;;;;;2.75;2.55;;;9.40;99.90;;;;;;6126904;23;20264;-67
2023/01/07 06:04:06;;;;;;;2.75;2.55;;;9.30;99.90;;;;;;6129670;23;20189;-67
2023/01/07 06:06:33;;;;;;;2.95;2.75;;;9.30;99.90;;;;;;6136828;23;20277;-67
2023/01/07 06:09:01;;;;;;;3.75;3.03;;;9.30;99.90;;;;;;6127385;23;20193;-67
2023/01/07 06:11:28;;;;;;;3.00;2.80;;;9.30;99.90;;;;;;6148279;23;20638;-67
2023/01/07 06:13:55;;;;;;;3.90;3.60;;;9.30;99.90;;;;;;6146760;23;20272;-67
2023/01/07 06:16:22;;;;;;;3.80;3.42;;;9.30;99.90;;;;;;6129762;23;20544;-67
2023/01/07 06:18:49;;;;;;;2.95;2.75;;;9.30;99.90;;;;;;6123148;23;20274;-67
2023/01/07 06:21:17;;;;;;;3.67;3.38;;;9.30;99.90;;;;;;6148158;23;20201;-67
2023/01/07 06:23:44;;;;;;;3.50;3.20;;;9.20;99.90;;;;;;6145736;23;20500;-67
2023/01/07 06:26:12;;;;;;;3.80;3.30;;;9.20;99.90;;;;;;6145997;23;20224;-67
2023/01/07 06:28:39;;;;;;;3.60;3.30;;;9.20;99.90;;;;;;6149573;23;20193;-67
2023/01/07 06:31:06;;;;;;;3.53;3.22;;;9.10;99.90;;;;;;6130560;23;20206;-67
2023/01/07 06:33:33;;;;;;;3.13;2.92;;;9.10;99.90;;;;;;6142516;23;20186;-67
2023/01/07 06:36:00;;;;;;;3.67;3.38;;;9.00;99.90;;;;;;6139282;23;20697;-67
2023/01/07 06:38:27;;;;;;;3.67;3.38;;;9.10;99.90;;;;;;6122122;23;20190;-67
2023/01/07 06:40:54;;;;;;;3.65;3.35;;;9.00;99.90;;;;;;6124648;23;20395;-67
2023/01/07 06:43:22;;;;;;;4.75;3.55;;;9.00;99.90;;;;;;6136921;23;20190;-67
2023/01/07 06:45:49;;;;;;;3.40;3.20;;;9.00;99.90;;;;;;6120128;23;20578;-67
2023/01/07 06:48:16;;;;;;;3.70;3.42;;;8.90;99.90;;;;;;6119696;23;20398;-67
2023/01/07 06:50:45;;;;;;;3.40;3.10;;;9.10;99.90;;;;;;6131444;23;20289;-67
2023/01/07 06:53:12;;;;;;;3.80;3.50;;;9.00;99.90;;;;;;6149009;23;20212;-67
2023/01/07 06:55:39;;;;;;;3.90;3.60;;;9.00;99.90;;;;;;6131547;23;20195;-67
2023/01/07 06:58:06;;;;;;;3.47;3.25;;;8.90;99.90;;;;;;6132664;23;20194;-67
2023/01/07 07:00:34;;;;;;;3.30;3.10;;;8.90;99.90;;;;;;6127972;23;20240;-67
2023/01/07 07:03:01;;;;;;;3.03;2.83;;;8.90;99.90;;;;;;6127029;23;20275;-67
2023/01/07 07:05:28;;;;;;;4.30;4.00;;;8.90;99.90;;;;;;6141784;23;20304;-67
2023/01/07 07:07:55;;;;;;;3.55;3.35;;;8.90;99.90;;;;;;6148924;23;20185;-67
2023/01/07 07:10:22;;;;;;;3.00;2.80;;;8.90;99.90;;;;;;6136110;23;20710;-67
2023/01/07 07:12:49;;;;;;;3.28;2.97;;;8.90;99.90;;;;;;6126116;23;20213;-67
2023/01/07 07:15:16;;;;;;;3.30;3.10;;;9.00;99.90;;;;;;6138709;23;20204;-67
2023/01/07 07:17:45;;;;;;;3.25;3.05;;;8.90;99.90;;;;;;6142867;23;20598;-67
2023/01/07 07:20:12;;;;;;;3.88;3.40;;;9.00;99.90;;;;;;6132785;23;20359;-67
2023/01/07 07:22:45;;;;;;;4.05;3.75;;;9.00;99.90;;;;;;6142274;23;20256;-67
2023/01/07 07:25:12;;;;;;;3.53;3.25;;;8.90;99.90;;;;;;6140265;23;20218;-67
2023/01/07 07:27:39;;;;;;;4.05;3.00;;;9.00;99.90;;;;;;6119776;23;20586;-66
2023/01/07 07:30:07;;;;;;;3.25;3.05;;;9.00;99.90;;;;;;6130630;23;20218;-67
2023/01/07 07:32:35;;;;;;;3.30;3.10;;;9.00;99.90;;;;;;6147115;23;20190;-67
2023/01/07 07:35:03;;;;;;;3.38;2.88;;;9.00;99.90;;;;;;6140171;23;20313;-66
2023/01/07 07:37:30;;;;;;;2.80;2.60;;;9.00;99.90;;;;;;6124585;23;20187;-67
2023/01/07 07:39:57;;;;;;;3.40;3.10;;;9.00;99.90;;;;;;6132755;23;20293;-67
2023/01/07 07:42:24;;;;;;;2.95;2.75;;;9.00;99.90;;;;;;6120857;23;20191;-67
2023/01/07 07:44:51;;;;;;;2.47;2.30;;;9.00;99.90;;;;;;6133463;23;20261;-67
2023/01/07 07:47:18;;;;;;;2.90;2.70;;;9.00;99.90;;;;;;6132839;23;20323;-67
2023/01/07 07:49:45;;;;;;;2.20;1.95;;;9.10;99.90;;;;;;6148187;23;20219;-66
2023/01/07 07:52:13;;;;;;;1.70;1.60;;;9.10;99.90;;;;;;6145140;23;20194;-66
2023/01/07 07:54:41;;;;;;;1.42;1.33;;;9.00;99.90;;;;;;6126853;23;20270;-67
2023/01/07 07:57:08;;;;;;;1.45;1.35;;;9.00;99.90;;;;;;6134250;23;20219;-66
2023/01/07 07:59:35;;;;;;;1.55;1.45;;;9.00;99.90;;;;;;6146742;23;20215;-66
2023/01/07 08:02:02;;;;;;;1.60;1.50;;;9.00;99.90;;;;;;6125741;23;20243;-67
2023/01/07 08:04:32;;;;;;;1.40;1.30;;;8.90;99.90;;;;;;6127076;23;20270;-67
2023/01/07 08:07:00;;;;;;;1.50;1.40;;;8.90;99.90;;;;;;6145747;23;20235;-67
2023/01/07 08:09:28;;;;;;;1.77;1.67;;;9.00;99.90;;;;;;6129556;23;20297;-65
2023/01/07 08:11:55;;;;;;;1.40;1.30;;;9.00;99.90;;;;;;6123938;23;20190;-66
2023/01/07 08:14:22;;;;;;;1.20;1.10;;;9.00;99.90;;;;;;6122216;23;20187;-66
2023/01/07 08:16:49;;;;;;;1.60;1.50;;;9.00;99.90;;;;;;6128194;23;20203;-66
2023/01/07 08:19:16;;;;;;;2.00;1.83;;;9.00;99.90;;;;;;6124023;23;20211;-66
2023/01/07 08:21:43;;;;;;;1.60;1.50;;;9.10;99.90;;;;;;6142981;23;20266;-68
2023/01/07 08:24:10;;;;;;;1.45;1.35;;;9.10;99.90;;;;;;6146781;23;20269;-67
2023/01/07 08:26:38;;;;;;;1.38;1.25;;;9.20;99.90;;;;;;6149559;23;20263;-68
2023/01/07 08:29:05;;;;;;;1.65;1.55;;;9.20;99.90;;;;;;6146959;23;20217;-68
2023/01/07 08:31:32;;;;;;;1.33;1.23;;;9.30;99.90;;;;;;6148222;23;20273;-67
2023/01/07 08:33:59;;;;;;;1.40;1.30;;;9.30;99.90;;;;;;6125313;23;20722;-67
2023/01/07 08:36:26;;;;;;;1.50;1.30;;;9.30;99.90;;;;;;6135251;23;20194;-67
2023/01/07 08:38:55;;;;;;;1.65;1.55;;;9.30;99.90;;;;;;6145517;23;20241;-68
2023/01/07 08:41:23;;;;;;;1.52;1.42;;;9.30;99.90;;;;;;6126929;23;20221;-67
2023/01/07 08:43:52;;;;;;;1.40;1.30;;;9.30;99.90;;;;;;6147063;23;20274;-67
2023/01/07 08:46:20;;;;;;;1.52;1.42;;;9.30;99.90;;;;;;6145117;23;21199;-67
2023/01/07 08:48:47;;;;;;;1.50;1.40;;;9.20;99.90;;;;;;6139446;23;20253;-68
2023/01/07 08:51:14;;;;;;;1.45;1.35;;;9.20;99.90;;;;;;6148546;23;20186;-67
2023/01/07 08:53:41;;;;;;;2.03;1.90;;;9.30;99.90;;;;;;6135164;23;20231;-67
2023/01/07 08:56:08;;;;;;;1.77;1.67;;;9.30;99.90;;;;;;6123058;23;20277;-68
2023/01/07 08:58:37;;;;;;;1.92;1.60;;;9.30;99.90;;;;;;6128678;23;20257;-70
2023/01/07 09:01:06;;;;;;;1.83;1.70;;;9.40;99.90;;;;;;6127625;23;20186;-70
2023/01/07 09:03:33;;;;;;;1.80;1.70;;;9.50;99.90;;;;;;6132976;23;20187;-68
2023/01/07 09:06:00;;;;;;;1.60;1.50;;;9.50;99.90;;;;;;6138550;23;20298;-68
2023/01/07 09:08:28;;;;;;;1.60;1.50;;;9.50;99.90;;;;;;6132983;23;20826;-68
2023/01/07 09:10:55;;;;;;;1.70;1.60;;;9.50;99.90;;;;;;6146625;23;20631;-68
2023/01/07 09:13:22;;;;;;;1.65;1.55;;;9.50;99.90;;;;;;6136410;23;20190;-68
2023/01/07 09:15:49;;;;;;;1.60;1.50;;;9.50;99.90;;;;;;6135879;23;20194;-68
2023/01/07 09:18:17;;;;;;;1.83;1.73;;;9.50;99.90;;;;;;6147672;23;20193;-68
2023/01/07 09:20:44;;;;;;;1.80;1.70;;;9.50;99.90;;;;;;6136576;23;20210;-71
2023/01/07 09:23:12;;;;;;;1.60;1.50;;;9.50;99.90;;;;;;6130819;23;20643;-68
2023/01/07 09:25:39;;;;;;;1.90;1.80;;;9.50;99.90;;;;;;6126934;23;20207;-68
2023/01/07 09:28:06;;;;;;;1.70;1.60;;;9.50;99.90;;;;;;6130155;23;21976;-68
2023/01/07 09:30:34;;;;;;;2.00;1.90;;;9.60;99.90;;;;;;6135928;23;20304;-68
2023/01/07 09:33:01;;;;;;;1.70;1.60;;;9.60;99.90;;;;;;6147116;23;20273;-68
2023/01/07 09:35:29;;;;;;;2.00;1.90;;;9.60;99.90;;;;;;6144222;23;20216;-68
2023/01/07 09:37:56;;;;;;;2.20;2.00;;;9.60;99.90;;;;;;6142924;23;20258;-67
2023/01/07 09:40:27;;;;;;;2.13;2.00;;;9.70;99.90;;;;;;6143005;23;20718;-68
2023/01/07 09:43:02;;;;;;;2.08;1.98;;;9.70;99.90;;;;;;6138187;23;20273;-81
2023/01/07 09:45:34;;;;;;;2.28;1.80;;;9.80;99.90;;;;;;6124932;23;20187;-68
2023/01/07 09:48:09;;;;;;;2.35;2.15;;;9.80;99.90;;;;;;6143974;23;20573;-68
2023/01/07 09:50:49;;;;;;;1.95;1.85;;;9.90;99.90;;;;;;6149864;23;20206;-67
2023/01/07 09:53:21;;;;;;;2.95;2.75;;;10.00;99.90;;;;;;6148480;23;20182;-68
2023/01/07 09:55:51;;;;;;;2.88;1.83;;;10.10;99.90;;;;;;6120342;23;20183;-67
2023/01/07 09:58:19;;;;;;;2.15;2.05;;;10.20;99.90;;;;;;6129829;23;20605;-68
2023/01/07 10:00:57;;;;;;;2.45;2.00;;;10.20;99.90;;;;;;6119820;23;20231;-67
2023/01/07 10:03:40;;;;;;;2.10;2.00;;;10.30;99.90;;;;;;6122300;23;20206;-67
2023/01/07 10:06:15;;;;;;;2.03;1.90;;;10.30;99.90;;;;;;6145072;23;20253;-67
2023/01/07 10:08:58;;;;;;;2.40;2.20;;;10.40;99.90;;;;;;6149521;23;20242;-68
2023/01/07 10:11:37;;;;;;;2.65;1.98;;;10.40;99.90;;;;;;6149441;23;20198;-67
2023/01/07 10:14:35;;;;;;;2.10;2.00;;;10.30;99.90;;;;;;6139315;23;20604;-68
2023/01/07 10:17:12;;;;;;;2.72;2.53;;;10.30;99.90;;;;;;6117756;23;20217;-67
2023/01/07 10:19:47;;;;;;;2.30;1.90;;;10.30;99.90;;;;;;6149294;23;20255;-67
2023/01/07 10:22:23;;;;;;;2.70;2.50;;;10.30;99.90;;;;;;6148541;23;20642;-67
2023/01/07 10:24:56;;;;;;;2.40;2.20;;;10.30;99.90;;;;;;6134517;23;20174;-68
2023/01/07 10:27:29;;;;;;;2.53;2.33;;;10.20;99.90;;;;;;6120220;23;20552;-68
2023/01/07 10:30:01;;;;;;;2.70;2.50;;;10.20;99.90;;;;;;6120011;23;20207;-68
2023/01/07 10:32:33;;;;;;;2.92;2.60;;;10.30;99.90;;;;;;6120101;23;20701;-68
2023/01/07 10:35:01;;;;;;;2.80;2.47;;;10.30;99.90;;;;;;6140393;23;20557;-67
2023/01/07 10:37:31;;;;;;;2.70;2.50;;;10.30;99.90;;;;;;6122526;23;20222;-68
2023/01/07 10:40:17;;;;;;;3.95;2.72;;;10.30;99.90;;;;;;6119103;23;20646;-68
2023/01/07 10:42:52;;;;;;;2.53;2.33;;;10.40;99.90;;;;;;6120158;23;20587;-68
2023/01/07 10:45:40;;;;;;;3.30;2.70;;;10.50;99.90;;;;;;6131333;23;20194;-68
2023/01/07 10:48:26;;;;;;;3.03;2.72;;;10.60;99.90;;;;;;6149384;23;20659;-66
2023/01/07 10:51:06;;;;;;;2.70;2.50;;;10.60;99.90;;;;;;6149015;23;20189;-66
2023/01/07 10:53:48;;;;;;;2.97;2.70;;;10.60;99.90;;;;;;6146587;23;20716;-67
2023/01/07 10:56:24;;;;;;;2.67;2.47;;;10.90;99.90;;;;;;6131375;23;20210;-67
2023/01/07 10:58:51;;;;;;;3.00;2.70;;;11.30;99.90;;;;;;6148510;23;20285;-68
2023/01/07 11:01:26;;;;;;;2.70;2.50;;;11.60;99.90;;;;;;6149348;23;20193;-67
2023/01/07 11:03:56;;;;;;;2.70;2.50;;;11.90;99.90;;;;;;6142795;23;20262;-67
2023/01/07 11:06:33;;;;;;;2.70;2.50;;;12.30;99.90;;;;;;6134161;23;20461;-67
2023/01/07 11:09:04;;;;;;;2.60;2.40;;;12.60;99.90;;;;;;6148371;23;20515;-67
2023/01/07 11:11:33;;;;;;;3.03;2.83;;;12.80;99.90;;;;;;6150660;23;20403;-68
2023/01/07 11:14:03;;;;;;;3.23;2.93;;;12.90;99.90;;;;;;6142021;23;20495;-68
2023/01/07 11:16:36;;;;;;;3.03;2.80;;;12.80;99.90;;;;;;6134805;23;20776;-68
2023/01/07 11:19:06;;;;;;;3.30;3.00;;;13.10;99.90;;;;;;6149852;23;20949;-68
2023/01/07 11:21:36;;;;;;;2.70;2.50;;;13.20;99.90;;;;;;6149783;23;20972;-68
2023/01/07 11:24:28;;;;;;;2.40;2.20;;;13.30;99.90;;;;;;6142985;23;20430;-68
2023/01/07 11:27:00;;;;;;;2.70;2.47;;;13.40;99.90;;;;;;6122773;23;20463;-68
2023/01/07 11:29:37;;;;;;;2.97;2.57;;;13.70;99.90;;;;;;6120709;23;20449;-68
2023/01/07 11:32:04;;;;;;;2.70;2.50;;;14.00;99.90;;;;;;6121054;23;20419;-69
2023/01/07 11:34:34;;;;;;;2.80;2.60;;;14.10;99.90;;;;;;6133445;23;20508;-68
2023/01/07 11:37:02;;;;;;;2.90;2.70;;;14.40;99.90;;;;;;6130600;23;20426;-69
2023/01/07 11:39:33;;;;;;;3.07;2.87;;;14.70;99.90;;;;;;6127569;23;20445;-69
2023/01/07 11:42:37;;;;;;;3.10;2.83;;;14.70;99.90;;;;;;6143802;23;20493;-67
2023/01/07 11:45:09;;;;;;;3.63;3.33;;;14.70;99.90;;;;;;6133382;23;20425;-68
2023/01/07 11:47:38;;;;;;;3.50;3.17;;;14.60;99.90;;;;;;6147115;23;20470;-69
2023/01/07 11:50:05;;;;;;;3.20;3.00;;;14.40;99.90;;;;;;6149254;23;20467;-67
2023/01/07 11:52:32;;;;;;;2.90;2.70;;;14.30;99.90;;;;;;6150066;23;20742;-67
2023/01/07 11:55:01;;;;;;;3.63;3.33;;;14.30;99.90;;;;;;6132060;23;20438;-69
2023/01/07 11:57:28;;;;;;;3.50;3.30;;;14.60;99.90;;;;;;6144824;23;20420;-69
2023/01/07 12:00:12;;;;;;;3.63;3.33;;;14.70;99.90;;;;;;6138252;23;20449;-69
2023/01/07 12:02:39;;;;;;;3.53;3.23;;;14.40;99.90;;;;;;6128128;23;20418;-68
2023/01/07 12:05:22;;;;;;;3.83;3.53;;;14.40;99.90;;;;;;6121585;23;20425;-68
2023/01/07 12:07:50;;;;;;;3.40;3.20;;;14.30;99.90;;;;;;6120903;23;20465;-69
2023/01/07 12:10:31;;;;;;;3.73;3.43;;;14.40;99.90;;;;;;6134333;23;20519;-68
2023/01/07 12:13:00;;;;;;;3.53;3.27;;;14.60;99.90;;;;;;6141264;23;20422;-68
2023/01/07 12:15:30;;;;;;;3.40;3.20;;;14.60;99.90;;;;;;6144072;23;20768;-69
2023/01/07 12:18:18;;;;;;;3.93;3.63;;;14.80;99.90;;;;;;6150530;23;20702;-69
2023/01/07 12:21:09;;;;;;;3.50;3.30;;;15.00;99.90;;;;;;6129197;23;20468;-69
2023/01/07 12:23:44;;;;;;;3.60;3.30;;;15.30;99.90;;;;;;6134148;23;20444;-67
2023/01/07 12:26:18;;;;;;;3.33;3.10;;;15.30;99.90;;;;;;6150280;23;20425;-67
2023/01/07 12:29:06;;;;;;;3.80;3.50;;;15.20;99.90;;;;;;6146266;23;20456;-67
2023/01/07 12:31:43;;;;;;;3.87;3.57;;;15.20;99.90;;;;;;6120331;23;20482;-68
2023/01/07 12:34:23;;;;;;;3.57;3.27;;;15.30;99.90;;;;;;6126154;23;20437;-67
2023/01/07 12:37:00;;;;;;;3.80;3.50;;;15.20;99.90;;;;;;6139685;23;20461;-68
2023/01/07 12:39:33;;;;;;;4.10;3.73;;;14.90;99.90;;;;;;6130193;23;20477;-67
2023/01/07 12:42:05;;;;;;;4.20;3.90;;;14.80;99.90;;;;;;6120372;23;20422;-68
2023/01/07 12:44:33;;;;;;;4.20;3.90;;;14.80;99.90;;;;;;6123952;23;20504;-68
2023/01/07 12:47:07;;;;;;;4.23;3.93;;;14.90;99.90;;;;;;6132528;23;20461;-68
2023/01/07 12:49:39;;;;;;;4.17;3.87;;;14.90;99.90;;;;;;6130670;23;20652;-67
2023/01/07 12:52:13;;;;;;;3.97;3.67;;;14.60;99.90;;;;;;6149888;23;20583;-67
2023/01/07 12:54:47;;;;;;;3.67;3.37;;;14.20;99.90;;;;;;6121140;23;20471;-68
2023/01/07 12:57:19;;;;;;;4.23;3.93;;;13.90;99.90;;;;;;6120587;23;20908;-68
2023/01/07 12:59:49;;;;;;;3.70;3.40;;;13.70;99.90;;;;;;6139501;23;20993;-68
2023/01/07 13:02:31;;;;;;;3.47;3.23;;;13.70;99.90;;;;;;6149377;23;20891;-68
2023/01/07 13:05:05;;;;;;;3.90;3.60;;;13.80;99.90;;;;;;6136896;23;20450;-67
2023/01/07 13:07:39;;;;;;;4.13;3.73;;;14.00;99.90;;;;;;6150178;23;20464;-68
2023/01/07 13:10:13;;;;;;;4.20;3.90;;;14.10;99.90;;;;;;6135118;23;20442;-68
2023/01/07 13:12:44;;;;;;;3.93;3.63;;;14.10;99.90;;;;;;6148740;23;20427;-68
2023/01/07 13:15:16;;;;;;;3.87;3.57;;;13.80;99.90;;;;;;6150144;23;20427;-68